createdAt,value
2019-05-14T00:00:18.043Z,103824.02
2019-05-14T00:02:46.512Z,103821.89
2019-05-14T00:05:15.866Z,103820.92
2019-05-14T00:07:44.410Z,103826.13
2019-05-14T00:10:12.941Z,103823.78
2019-05-14T00:12:41.979Z,103823.27
2019-05-14T00:15:11.082Z,103824.87
2019-05-14T00:17:41.636Z,103826.80
2019-05-14T00:20:12.846Z,103821.11
2019-05-14T00:22:41.698Z,103821.34
2019-05-14T00:25:11.679Z,103817.31
2019-05-14T00:27:41.423Z,103814.95
2019-05-14T00:30:11.466Z,103817.30
2019-05-14T00:32:41.492Z,103822.80
2019-05-14T00:35:11.082Z,103821.69
2019-05-14T00:37:41.526Z,103816.98
2019-05-14T00:40:11.762Z,103811.75
2019-05-14T00:42:41.491Z,103812.18
2019-05-14T00:45:11.525Z,103805.45
2019-05-14T00:47:41.867Z,103807.70
2019-05-14T00:50:11.274Z,103802.41
2019-05-14T00:52:42.493Z,103803.44
2019-05-14T00:55:11.761Z,103798.00
2019-05-14T00:57:42.478Z,103795.95
2019-05-14T01:00:11.695Z,103790.10
2019-05-14T01:02:41.567Z,103793.72
2019-05-14T01:05:12.391Z,103785.78
2019-05-14T01:07:42.360Z,103785.46
2019-05-14T01:10:11.574Z,103785.31
2019-05-14T01:12:41.344Z,103777.08
2019-05-14T01:15:13.391Z,103774.66
2019-05-14T01:17:42.192Z,103771.63
2019-05-14T01:20:12.393Z,103774.80
2019-05-14T01:22:42.301Z,103773.59
2019-05-14T01:25:12.067Z,103770.73
2019-05-14T01:27:41.397Z,103774.06
2019-05-14T01:30:12.259Z,103781.80
2019-05-14T01:32:42.038Z,103781.05
2019-05-14T01:35:12.050Z,103782.88
2019-05-14T01:37:41.623Z,103778.91
2019-05-14T01:40:11.416Z,103784.73
2019-05-14T01:42:41.647Z,103780.30
2019-05-14T01:45:23.522Z,103781.43
2019-05-14T01:47:41.485Z,103789.78
2019-05-14T01:50:11.347Z,103787.22
2019-05-14T01:52:41.514Z,103793.36
2019-05-14T01:55:11.392Z,103790.79
2019-05-14T01:57:42.276Z,103781.16
2019-05-14T02:00:11.439Z,103780.03
2019-05-14T02:02:41.757Z,103786.72
2019-05-14T02:05:12.511Z,103786.45
2019-05-14T02:07:42.037Z,103784.34
2019-05-14T02:10:11.637Z,103789.90
2019-05-14T02:12:42.339Z,103793.06
2019-05-14T02:15:12.077Z,103791.56
2019-05-14T02:17:41.375Z,103787.92
2019-05-14T02:20:12.372Z,103786.97
2019-05-14T02:22:41.689Z,103788.59
2019-05-14T02:25:11.680Z,103789.05
2019-05-14T02:27:41.353Z,103792.98
2019-05-14T02:30:10.737Z,103792.84
2019-05-14T02:32:40.675Z,103792.16
2019-05-14T02:35:10.117Z,103792.00
2019-05-14T02:37:40.070Z,103790.69
2019-05-14T02:40:09.829Z,103792.89
2019-05-14T02:42:40.237Z,103798.44
2019-05-14T02:45:09.714Z,103794.92
2019-05-14T02:47:39.736Z,103795.27
2019-05-14T02:50:09.889Z,103794.38
2019-05-14T02:52:40.346Z,103795.05
2019-05-14T02:55:09.491Z,103797.20
2019-05-14T02:57:39.379Z,103793.34
2019-05-14T03:00:10.130Z,103795.91
2019-05-14T03:02:40.437Z,103791.15
2019-05-14T03:05:09.863Z,103786.51
2019-05-14T03:07:39.485Z,103784.54
2019-05-14T03:10:10.055Z,103776.83
2019-05-14T03:12:39.551Z,103776.87
2019-05-14T03:15:09.695Z,103774.55
2019-05-14T03:17:40.361Z,103768.75
2019-05-14T03:20:09.301Z,103771.02
2019-05-14T03:22:46.797Z,103778.22
2019-05-14T03:25:10.099Z,103766.23
2019-05-14T03:27:40.532Z,103765.82
2019-05-14T03:30:12.580Z,103764.77
2019-05-14T03:32:42.448Z,103757.38
2019-05-14T03:35:13.112Z,103758.73
2019-05-14T03:37:40.203Z,103752.80
2019-05-14T03:40:09.435Z,103752.72
2019-05-14T03:42:39.953Z,103750.02
2019-05-14T03:45:09.252Z,103752.30
2019-05-14T03:47:39.503Z,103761.02
2019-05-14T03:50:10.291Z,103759.91
2019-05-14T03:52:39.912Z,103764.55
2019-05-14T03:55:09.471Z,103754.16
2019-05-14T03:57:39.973Z,103749.04
2019-05-14T04:00:10.270Z,103748.17
2019-05-14T04:02:39.291Z,103746.83
2019-05-14T04:05:09.580Z,103748.16
2019-05-14T04:07:39.353Z,103747.54
2019-05-14T04:10:10.300Z,103748.65
2019-05-14T04:12:40.402Z,103753.11
2019-05-14T04:15:09.756Z,103755.13
2019-05-14T04:17:42.182Z,103751.99
2019-05-14T04:20:09.521Z,103748.12
2019-05-14T04:22:39.337Z,103746.30
2019-05-14T04:25:10.822Z,103743.88
2019-05-14T04:27:40.232Z,103740.65
2019-05-14T04:30:09.653Z,103741.53
2019-05-14T04:32:39.960Z,103744.35
2019-05-14T04:35:09.571Z,103744.89
2019-05-14T04:37:39.892Z,103751.25
2019-05-14T04:40:10.000Z,103742.97
2019-05-14T04:42:40.181Z,103744.70
2019-05-14T04:45:11.001Z,103749.62
2019-05-14T04:50:25.961Z,103747.34
2019-05-14T04:52:55.406Z,103738.05
2019-05-14T04:55:29.659Z,103734.84
2019-05-14T05:09:59.293Z,103730.41
2019-05-14T05:12:42.564Z,103727.03
2019-05-14T05:18:18.597Z,103727.73
2019-05-14T05:21:00.043Z,103728.01
2019-05-14T05:23:28.668Z,103726.98
2019-05-14T05:25:58.595Z,103729.86
2019-05-14T05:28:30.573Z,103728.98
2019-05-14T05:30:59.172Z,103731.35
2019-05-14T05:39:38.954Z,103717.41
2019-05-14T05:44:49.622Z,103725.84
2019-05-14T05:47:21.172Z,103727.34
2019-05-14T05:49:50.418Z,103725.91
2019-05-14T05:52:24.281Z,103724.23
2019-05-14T05:57:33.450Z,103713.59
2019-05-14T06:00:02.066Z,103708.92
2019-05-14T06:05:10.106Z,103705.30
2019-05-14T06:13:34.519Z,103700.69
2019-05-14T07:02:30.035Z,103685.31
2019-05-14T07:04:59.073Z,103688.77
2019-05-14T07:07:30.152Z,103680.73
2019-05-14T07:09:58.282Z,103679.84
2019-05-14T07:12:29.267Z,103685.45
2019-05-14T07:14:58.537Z,103692.81
2019-05-14T07:17:28.757Z,103683.73
2019-05-14T07:19:58.270Z,103689.45
2019-05-14T07:22:28.156Z,103689.22
2019-05-14T07:24:58.728Z,103685.00
2019-05-14T07:30:29.090Z,103691.65
2019-05-14T07:38:39.191Z,103687.14
2019-05-14T07:41:09.235Z,103686.94
2019-05-14T07:43:42.549Z,103683.94
2019-05-14T08:32:39.017Z,103648.05
2019-05-14T09:15:02.972Z,103593.31
2019-05-14T09:26:14.512Z,103589.32
2019-05-14T09:48:38.161Z,103563.82
2019-05-14T09:56:32.368Z,103557.38
2019-05-14T09:59:09.020Z,103560.80
2019-05-14T10:48:40.472Z,103510.05
2019-05-14T10:51:09.908Z,103506.13
2019-05-14T10:53:38.582Z,103498.77
2019-05-14T10:56:07.149Z,103492.80
2019-05-14T10:58:35.665Z,103491.69
2019-05-14T11:01:04.236Z,103495.96
2019-05-14T11:03:32.782Z,103499.07
2019-05-14T11:06:01.262Z,103486.77
2019-05-14T11:08:29.855Z,103481.37
2019-05-14T11:11:03.611Z,103476.98
2019-05-14T11:21:55.304Z,103463.94
2019-05-14T11:30:34.715Z,103441.36
2019-05-14T12:02:14.013Z,103405.20
2019-05-14T12:07:32.884Z,103391.86
2019-05-14T12:12:30.353Z,103392.66
2019-05-14T12:14:59.021Z,103385.16
2019-05-14T12:17:29.492Z,103392.73
2019-05-14T12:19:59.407Z,103384.70
2019-05-14T12:22:28.736Z,103382.53
2019-05-14T12:30:15.930Z,103357.75
2019-05-14T12:35:29.237Z,103349.01
2019-05-14T12:37:58.590Z,103342.51
2019-05-14T12:46:05.341Z,103349.08
2019-05-14T12:48:33.865Z,103340.50
2019-05-14T12:53:45.798Z,103329.92
2019-05-14T13:30:29.831Z,103282.48
2019-05-14T13:32:59.204Z,103281.86
2019-05-14T13:35:29.270Z,103264.33
2019-05-14T13:37:58.637Z,103259.75
2019-05-14T13:40:28.379Z,103247.94
2019-05-14T13:42:57.080Z,103251.22
2019-05-14T13:45:25.693Z,103245.06
2019-05-14T13:47:54.337Z,103245.92
2019-05-14T13:50:22.918Z,103253.09
2019-05-14T13:53:04.199Z,103238.53
2019-05-14T13:55:21.697Z,103236.56
2019-05-14T13:57:50.238Z,103230.78
2019-05-14T14:00:19.851Z,103228.82
2019-05-14T14:02:48.859Z,103227.31
2019-05-14T14:05:20.299Z,103226.54
2019-05-14T14:07:48.559Z,103224.61
2019-05-14T14:10:17.324Z,103206.18
2019-05-14T14:12:49.314Z,103203.73
2019-05-14T14:15:16.169Z,103202.98
2019-05-14T14:17:44.721Z,103200.07
2019-05-14T14:20:13.305Z,103199.12
2019-05-14T14:22:41.923Z,103196.61
2019-05-14T14:25:10.487Z,103196.45
2019-05-14T14:27:40.864Z,103190.25
2019-05-14T14:30:09.633Z,103181.18
2019-05-14T14:32:40.620Z,103177.42
2019-05-14T14:35:08.875Z,103179.67
2019-05-14T14:37:39.735Z,103178.78
2019-05-14T14:40:10.108Z,103170.65
2019-05-14T14:42:40.140Z,103177.33
2019-05-14T14:45:08.602Z,103178.42
2019-05-14T14:47:39.427Z,103179.54
2019-05-14T14:50:08.543Z,103177.47
2019-05-14T14:52:37.191Z,103176.63
2019-05-14T14:55:06.669Z,103176.17
2019-05-14T14:57:35.330Z,103170.28
2019-05-14T15:00:04.931Z,103167.97
2019-05-14T15:02:40.803Z,103160.16
2019-05-14T15:05:13.344Z,103157.39
2019-05-14T15:07:40.821Z,103166.94
2019-05-14T15:10:08.849Z,103168.33
2019-05-14T15:12:39.935Z,103156.71
2019-05-14T15:15:07.662Z,103157.44
2019-05-14T15:17:38.981Z,103156.30
2019-05-14T15:20:09.909Z,103146.83
2019-05-14T15:22:36.602Z,103143.70
2019-05-14T15:25:05.654Z,103139.45
2019-05-14T15:27:34.240Z,103134.09
2019-05-14T15:30:03.125Z,103130.72
2019-05-14T15:32:31.643Z,103122.39
2019-05-14T15:35:00.163Z,103121.65
2019-05-14T15:37:31.590Z,103106.14
2019-05-14T15:39:58.866Z,103111.55
2019-05-14T15:42:28.366Z,103116.50
2019-05-14T15:44:59.811Z,103110.57
2019-05-14T15:47:29.605Z,103109.42
2019-05-14T15:49:59.432Z,103098.73
2019-05-14T15:52:29.143Z,103105.34
2019-05-14T15:54:58.012Z,103094.38
2019-05-14T15:57:28.881Z,103095.67
2019-05-14T16:00:00.800Z,103090.11
2019-05-14T16:02:29.545Z,103083.31
2019-05-14T16:04:59.144Z,103077.08
2019-05-14T16:07:29.379Z,103076.38
2019-05-14T16:10:00.677Z,103081.83
2019-05-14T16:12:28.667Z,103078.45
2019-05-14T16:14:58.290Z,103073.66
2019-05-14T16:17:30.213Z,103073.73
2019-05-14T16:19:57.053Z,103069.39
2019-05-14T16:22:25.592Z,103071.00
2019-05-14T16:24:57.088Z,103059.84
2019-05-14T16:27:24.328Z,103054.49
2019-05-14T16:29:52.887Z,103070.51
2019-05-14T16:32:21.459Z,103070.08
2019-05-14T16:34:49.971Z,103067.53
2019-05-14T16:37:18.479Z,103081.78
2019-05-14T16:39:48.796Z,103076.22
2019-05-14T16:42:20.643Z,103078.67
2019-05-14T16:44:47.576Z,103077.08
2019-05-14T16:47:18.707Z,103080.75
2019-05-14T16:49:48.198Z,103076.07
2019-05-14T16:52:18.087Z,103072.48
2019-05-14T16:54:48.759Z,103070.82
2019-05-14T16:57:18.583Z,103062.48
2019-05-14T16:59:49.448Z,103063.41
2019-05-14T17:02:19.106Z,103061.22
2019-05-14T17:04:48.403Z,103069.64
2019-05-14T17:07:18.230Z,103063.83
2019-05-14T17:09:49.229Z,103057.03
2019-05-14T17:12:20.165Z,103058.94
2019-05-14T17:14:47.600Z,103060.05
2019-05-14T17:17:16.121Z,103060.73
2019-05-14T17:19:44.634Z,103064.59
2019-05-14T17:22:27.769Z,103068.14
2019-05-14T17:24:43.334Z,103060.23
2019-05-14T17:27:11.851Z,103054.28
2019-05-14T17:29:40.416Z,103057.66
2019-05-14T17:32:08.909Z,103054.92
2019-05-14T17:34:38.658Z,103052.03
2019-05-14T17:37:08.983Z,103048.15
2019-05-14T17:39:38.702Z,103043.61
2019-05-14T17:42:11.414Z,103048.34
2019-05-14T17:44:38.803Z,103043.57
2019-05-14T17:47:07.504Z,103050.09
2019-05-14T17:49:36.068Z,103040.29
2019-05-14T17:52:04.615Z,103046.42
2019-05-14T17:54:33.167Z,103037.89
2019-05-14T17:57:01.671Z,103030.23
2019-05-14T17:59:33.055Z,103035.87
2019-05-14T18:02:00.377Z,103029.77
2019-05-14T18:04:28.990Z,103027.73
2019-05-14T18:06:59.146Z,103023.25
2019-05-14T18:09:29.318Z,103034.16
2019-05-14T18:11:58.635Z,103028.17
2019-05-14T18:14:28.410Z,103029.48
2019-05-14T18:16:58.513Z,103028.72
2019-05-14T18:19:28.929Z,103019.32
2019-05-14T18:21:59.286Z,103014.34
2019-05-14T18:24:28.622Z,103014.34
2019-05-14T18:26:57.320Z,103015.16
2019-05-14T18:29:25.798Z,103014.02
2019-05-14T18:31:55.275Z,103010.48
2019-05-14T18:34:24.330Z,103015.30
2019-05-14T18:36:52.916Z,103015.36
2019-05-14T18:39:21.490Z,103010.09
2019-05-14T18:41:50.219Z,103015.35
2019-05-14T18:44:19.082Z,103012.36
2019-05-14T18:46:48.653Z,103010.70
2019-05-14T18:49:19.500Z,103018.17
2019-05-14T18:51:50.127Z,103024.95
2019-05-14T18:54:17.886Z,103016.89
2019-05-14T18:56:48.714Z,103019.55
2019-05-14T18:59:21.350Z,103016.11
2019-05-14T19:01:49.233Z,103018.36
2019-05-14T19:04:18.541Z,103009.97
2019-05-14T19:06:48.259Z,103014.16
2019-05-14T19:09:18.640Z,103009.56
2019-05-14T19:11:48.198Z,103015.05
2019-05-14T19:14:18.691Z,103013.69
2019-05-14T19:16:48.941Z,103006.97
2019-05-14T19:19:17.327Z,103008.88
2019-05-14T19:21:45.887Z,103016.19
2019-05-14T19:24:14.432Z,103013.63
2019-05-14T19:26:42.960Z,103013.98
2019-05-14T19:29:11.550Z,103018.22
2019-05-14T19:31:40.097Z,103018.77
2019-05-14T19:34:08.676Z,103022.28
2019-05-14T19:36:37.195Z,103021.25
2019-05-14T19:39:07.852Z,103024.36
2019-05-14T19:41:38.790Z,103021.28
2019-05-14T19:44:08.700Z,103025.33
2019-05-14T19:46:38.637Z,103022.84
2019-05-14T19:49:08.183Z,103023.45
2019-05-14T19:51:38.793Z,103026.06
2019-05-14T19:54:08.162Z,103028.30
2019-05-14T19:56:49.604Z,103029.00
2019-05-14T19:59:09.039Z,103026.08
2019-05-14T20:01:38.537Z,103028.65
2019-05-14T20:04:09.368Z,103034.53
2019-05-14T20:06:38.790Z,103040.97
2019-05-14T20:09:09.513Z,103035.99
2019-05-14T20:11:39.663Z,103043.23
2019-05-14T20:14:08.085Z,103040.47
2019-05-14T20:16:39.041Z,103036.11
2019-05-14T20:19:08.804Z,103034.68
2019-05-14T20:21:38.971Z,103035.23
2019-05-14T20:24:07.300Z,103038.59
2019-05-14T20:26:35.783Z,103042.58
2019-05-14T20:29:04.265Z,103040.26
2019-05-14T20:31:32.852Z,103039.80
2019-05-14T20:34:01.357Z,103039.75
2019-05-14T20:36:29.829Z,103043.55
2019-05-14T20:38:58.998Z,103042.46
2019-05-14T20:41:28.778Z,103044.45
2019-05-14T20:43:58.625Z,103042.33
2019-05-14T20:46:28.509Z,103043.22
2019-05-14T20:48:59.185Z,103038.58
2019-05-14T20:51:30.200Z,103039.23
2019-05-14T20:53:58.128Z,103042.81
2019-05-14T20:56:28.431Z,103042.28
2019-05-14T20:58:58.817Z,103041.25
2019-05-14T21:01:29.079Z,103042.00
2019-05-14T21:03:59.265Z,103038.03
2019-05-14T21:06:28.162Z,103037.94
2019-05-14T21:08:58.501Z,103037.59
2019-05-14T21:11:28.793Z,103033.80
2019-05-14T21:13:58.112Z,103030.05
2019-05-14T21:16:28.316Z,103029.18
2019-05-14T21:18:58.964Z,103032.17
2019-05-14T21:21:29.473Z,103025.00
2019-05-14T21:23:58.628Z,103025.15
2019-05-14T21:26:29.234Z,103029.84
2019-05-14T21:28:58.322Z,103027.22
2019-05-14T21:31:28.368Z,103029.78
2019-05-14T21:33:58.626Z,103030.09
2019-05-14T21:36:28.439Z,103029.84
2019-05-14T21:38:58.604Z,103037.45
2019-05-14T21:41:29.062Z,103036.20
2019-05-14T21:43:58.446Z,103033.87
2019-05-14T21:46:28.912Z,103035.22
2019-05-14T21:48:58.603Z,103031.40
2019-05-14T21:51:28.329Z,103032.13
2019-05-14T21:53:58.802Z,103038.66
2019-05-14T21:56:29.176Z,103036.63
2019-05-14T21:58:58.571Z,103033.43
2019-05-14T22:01:30.975Z,103030.25
2019-05-14T22:03:59.309Z,103036.02
2019-05-14T22:06:29.115Z,103029.39
2019-05-14T22:08:59.088Z,103027.59
2019-05-14T22:11:28.212Z,103026.93
2019-05-14T22:13:58.292Z,103025.23
2019-05-14T22:16:28.094Z,103018.19
2019-05-14T22:18:59.143Z,103023.61
2019-05-14T22:21:28.898Z,103021.53
2019-05-14T22:23:58.901Z,103026.52
2019-05-14T22:26:28.223Z,103019.89
2019-05-14T22:28:58.686Z,103023.47
2019-05-14T22:31:28.952Z,103014.69
2019-05-14T22:33:58.287Z,103013.84
2019-05-14T22:36:29.309Z,103013.55
2019-05-14T22:38:57.950Z,103013.20
2019-05-14T22:41:28.902Z,103011.59
2019-05-14T22:43:59.736Z,103014.91
2019-05-14T22:46:27.199Z,103014.31
2019-05-14T22:48:55.788Z,103015.53
2019-05-14T22:51:24.391Z,103016.45
2019-05-14T22:53:52.973Z,103016.75
2019-05-14T22:56:21.514Z,103017.10
2019-05-14T22:58:50.132Z,103021.74
2019-05-14T23:01:18.770Z,103015.58
2019-05-14T23:03:48.910Z,103022.54
2019-05-14T23:06:18.799Z,103020.47
2019-05-14T23:08:48.644Z,103020.55
2019-05-14T23:11:19.750Z,103021.29
2019-05-14T23:13:48.789Z,103015.79
2019-05-14T23:16:30.982Z,103014.48
2019-05-14T23:18:48.733Z,103013.80
2019-05-14T23:21:17.502Z,103012.89
2019-05-14T23:23:46.143Z,103013.99
2019-05-14T23:26:14.763Z,103012.45
2019-05-14T23:28:45.960Z,103011.89
2019-05-14T23:31:13.614Z,103013.95
2019-05-14T23:33:42.199Z,103007.39
2019-05-14T23:36:10.861Z,103007.58
2019-05-14T23:38:51.920Z,103004.93
2019-05-14T23:41:20.515Z,102999.23
2019-05-14T23:43:49.107Z,102997.13
2019-05-14T23:46:18.362Z,103002.73
2019-05-14T23:48:48.456Z,102999.14
2019-05-14T23:51:18.203Z,102996.08
2019-05-14T23:53:48.332Z,102996.49
2019-05-14T23:56:19.134Z,102995.13
2019-05-14T23:58:55.854Z,102990.37
